createdAt,value
2023-03-06T00:01:09.005Z,58.28
2023-03-06T00:03:39.281Z,54.47
2023-03-06T00:06:14.368Z,51.92
2023-03-06T00:11:21.697Z,56.56
2023-03-06T00:13:59.789Z,53.75
2023-03-06T00:16:37.448Z,56.10
2023-03-06T00:19:05.310Z,55.89
2023-03-06T00:21:48.905Z,55.46
2023-03-06T00:24:27.625Z,53.92
2023-03-06T00:29:40.403Z,55.72
2023-03-06T00:32:14.553Z,56.79
2023-03-06T00:34:41.675Z,53.58
2023-03-06T00:37:10.045Z,53.76
2023-03-06T00:39:37.516Z,56.29
2023-03-06T00:42:16.058Z,57.87
2023-03-06T00:44:54.974Z,55.41
2023-03-06T00:47:26.661Z,55.05
2023-03-06T00:50:01.208Z,57.26
2023-03-06T00:52:28.354Z,56.92
2023-03-06T00:55:05.711Z,55.68
2023-03-06T00:57:40.276Z,55.77
2023-03-06T01:00:10.571Z,56.34
2023-03-06T01:02:38.738Z,56.30
2023-03-06T01:05:11.677Z,56.54
2023-03-06T01:07:41.688Z,56.55
2023-03-06T01:10:17.958Z,58.95
2023-03-06T01:12:48.251Z,56.99
2023-03-06T01:15:33.974Z,58.85
2023-03-06T01:18:10.609Z,57.62
2023-03-06T01:20:41.260Z,57.32
2023-03-06T01:23:30.901Z,56.62
2023-03-06T01:26:03.351Z,58.85
2023-03-06T01:28:30.356Z,56.40
2023-03-06T01:31:04.347Z,57.89
2023-03-06T01:33:40.458Z,56.26
2023-03-06T01:36:12.234Z,59.24
2023-03-06T01:38:42.362Z,58.53
2023-03-06T01:41:34.423Z,55.42
2023-03-06T01:44:07.335Z,56.33
2023-03-06T01:46:43.538Z,55.72
2023-03-06T01:49:19.957Z,59.26
2023-03-06T01:51:54.695Z,55.77
2023-03-06T01:54:29.130Z,56.23
2023-03-06T01:57:19.542Z,57.46
2023-03-06T01:59:53.146Z,56.99
2023-03-06T02:02:27.455Z,56.76
2023-03-06T02:04:54.487Z,57.94
2023-03-06T02:07:21.835Z,56.54
2023-03-06T02:09:51.952Z,57.54
2023-03-06T02:12:39.812Z,58.71
2023-03-06T02:15:29.984Z,56.92
2023-03-06T02:18:00.647Z,57.97
2023-03-06T02:20:52.019Z,60.02
2023-03-06T02:23:51.942Z,56.20
2023-03-06T02:26:22.202Z,58.26
2023-03-06T02:28:58.532Z,59.48
2023-03-06T02:31:33.436Z,60.20
2023-03-06T02:34:37.850Z,57.84
2023-03-06T02:37:15.094Z,55.76
2023-03-06T02:39:52.177Z,55.53
2023-03-06T02:42:25.350Z,55.65
2023-03-06T02:44:57.920Z,56.27
2023-03-06T02:47:24.577Z,55.68
2023-03-06T02:50:00.907Z,55.83
2023-03-06T02:52:31.863Z,56.26
2023-03-06T02:55:01.807Z,56.31
2023-03-06T02:57:31.370Z,55.83
2023-03-06T02:59:59.725Z,56.79
2023-03-06T03:02:28.537Z,56.54
2023-03-06T03:05:07.047Z,56.06
2023-03-06T03:10:29.345Z,56.24
2023-03-06T03:12:59.454Z,56.63
2023-03-06T03:15:26.507Z,56.56
2023-03-06T03:17:53.522Z,55.25
2023-03-06T03:20:22.453Z,55.15
2023-03-06T03:22:51.361Z,55.96
2023-03-06T03:25:18.933Z,55.67
2023-03-06T03:27:46.260Z,55.00
2023-03-06T03:30:13.626Z,54.21
2023-03-06T03:32:42.822Z,55.84
2023-03-06T03:35:29.279Z,57.27
2023-03-06T03:38:11.038Z,56.13
2023-03-06T03:43:37.880Z,56.90
2023-03-06T03:46:14.006Z,57.11
2023-03-06T03:48:57.027Z,55.36
2023-03-06T03:51:23.813Z,56.08
2023-03-06T03:53:51.979Z,56.33
2023-03-06T03:56:18.919Z,57.23
2023-03-06T03:58:57.689Z,57.22
2023-03-06T04:01:39.675Z,57.23
2023-03-06T04:07:10.444Z,55.48
2023-03-06T04:09:40.317Z,56.72
2023-03-06T04:12:10.254Z,55.27
2023-03-06T04:14:39.913Z,56.48
2023-03-06T04:17:06.762Z,58.62
2023-03-06T04:19:33.910Z,58.29
2023-03-06T04:22:04.080Z,59.76
2023-03-06T04:24:42.292Z,58.17
2023-03-06T04:27:25.021Z,57.16
2023-03-06T04:30:04.441Z,58.00
2023-03-06T04:32:34.192Z,59.17
2023-03-06T04:35:01.290Z,57.40
2023-03-06T04:37:37.735Z,59.60
2023-03-06T04:40:13.729Z,57.42
2023-03-06T04:43:08.602Z,59.56
2023-03-06T04:45:35.700Z,57.72
2023-03-06T04:48:03.173Z,57.87
2023-03-06T04:50:43.146Z,56.45
2023-03-06T04:53:16.847Z,57.78
2023-03-06T04:55:48.182Z,59.48
2023-03-06T04:58:17.586Z,56.67
2023-03-06T05:00:44.480Z,57.52
2023-03-06T05:03:22.372Z,56.85
2023-03-06T05:06:10.751Z,56.27
2023-03-06T05:08:40.561Z,56.75
2023-03-06T05:11:20.667Z,54.87
2023-03-06T05:13:56.583Z,56.12
2023-03-06T05:16:26.451Z,57.36
2023-03-06T05:19:08.823Z,56.04
2023-03-06T05:21:42.118Z,59.74
2023-03-06T05:24:14.791Z,56.31
2023-03-06T05:26:51.584Z,55.56
2023-03-06T05:29:25.319Z,57.59
2023-03-06T05:32:08.839Z,56.82
2023-03-06T05:34:41.986Z,57.91
2023-03-06T05:37:08.998Z,56.04
2023-03-06T05:39:52.633Z,56.21
2023-03-06T05:42:23.233Z,57.02
2023-03-06T05:44:53.903Z,58.00
2023-03-06T05:47:26.768Z,58.50
2023-03-06T05:50:10.733Z,57.28
2023-03-06T05:55:38.658Z,58.49
2023-03-06T05:58:11.496Z,56.45
2023-03-06T06:00:42.019Z,56.28
2023-03-06T06:03:12.218Z,56.21
2023-03-06T06:05:40.319Z,53.98
2023-03-06T06:08:08.357Z,55.77
2023-03-06T06:10:36.466Z,56.83
2023-03-06T06:13:06.154Z,56.27
2023-03-06T06:15:43.026Z,55.65
2023-03-06T06:18:15.633Z,56.98
2023-03-06T06:20:42.480Z,58.27
2023-03-06T06:23:14.330Z,57.95
2023-03-06T06:25:41.320Z,58.37
2023-03-06T06:28:13.185Z,58.78
2023-03-06T06:30:42.785Z,58.61
2023-03-06T06:33:19.382Z,60.23
2023-03-06T06:35:46.458Z,57.77
2023-03-06T06:38:22.244Z,57.87
2023-03-06T06:41:19.341Z,57.67
2023-03-06T06:43:42.079Z,58.58
2023-03-06T06:46:53.391Z,59.01
2023-03-06T06:49:05.790Z,58.72
2023-03-06T06:51:39.013Z,58.33
2023-03-06T06:54:06.548Z,59.03
2023-03-06T06:56:34.759Z,58.14
2023-03-06T06:59:16.710Z,57.26
2023-03-06T07:01:52.781Z,57.44
2023-03-06T07:04:23.484Z,57.26
2023-03-06T07:06:55.320Z,57.79
2023-03-06T07:09:22.563Z,56.87
2023-03-06T07:11:52.565Z,57.45
2023-03-06T07:14:21.543Z,56.66
2023-03-06T07:16:49.939Z,57.09
2023-03-06T07:19:19.777Z,57.24
2023-03-06T07:21:55.619Z,58.24
2023-03-06T07:24:22.481Z,58.22
2023-03-06T07:26:49.224Z,58.53
2023-03-06T07:29:16.174Z,58.09
2023-03-06T07:31:43.020Z,56.71
2023-03-06T07:34:17.859Z,58.06
2023-03-06T07:36:48.826Z,57.24
2023-03-06T07:39:15.750Z,57.86
2023-03-06T07:41:48.384Z,56.25
2023-03-06T07:44:15.163Z,57.38
2023-03-06T07:46:47.776Z,56.76
2023-03-06T07:49:14.693Z,56.88
2023-03-06T07:51:47.351Z,56.47
2023-03-06T07:54:14.176Z,55.45
2023-03-06T07:56:40.979Z,56.02
2023-03-06T07:59:11.945Z,56.52
2023-03-06T08:01:40.400Z,55.52
2023-03-06T08:04:07.292Z,55.60
2023-03-06T08:06:38.475Z,55.68
2023-03-06T08:09:11.571Z,54.66
2023-03-06T08:11:38.344Z,55.12
2023-03-06T08:14:05.308Z,55.03
2023-03-06T08:16:40.728Z,54.61
2023-03-06T08:19:29.069Z,55.58
2023-03-06T08:22:16.079Z,54.21
2023-03-06T08:24:43.822Z,54.89
2023-03-06T08:27:23.282Z,54.63
2023-03-06T08:30:03.772Z,53.94
2023-03-06T08:32:37.476Z,53.34
2023-03-06T08:35:17.320Z,53.52
2023-03-06T08:37:47.118Z,54.09
2023-03-06T08:40:27.855Z,53.62
2023-03-06T08:43:00.817Z,54.02
2023-03-06T08:45:55.105Z,53.71
2023-03-06T08:48:33.862Z,54.16
2023-03-06T08:51:05.309Z,54.27
2023-03-06T08:53:43.409Z,54.45
2023-03-06T08:56:35.038Z,53.43
2023-03-06T08:59:10.719Z,54.09
2023-03-06T09:01:46.701Z,53.48
2023-03-06T09:04:13.509Z,53.66
2023-03-06T09:06:49.295Z,53.84
2023-03-06T09:09:22.986Z,53.72
2023-03-06T09:11:51.370Z,53.45
2023-03-06T09:14:25.520Z,53.24
2023-03-06T09:17:02.201Z,53.26
2023-03-06T09:19:38.672Z,53.07
2023-03-06T09:22:08.686Z,52.92
2023-03-06T09:25:01.488Z,53.11
2023-03-06T09:27:33.198Z,52.48
2023-03-06T09:30:06.433Z,52.53
2023-03-06T09:32:33.334Z,52.21
2023-03-06T09:35:06.979Z,51.98
2023-03-06T09:37:42.774Z,52.08
2023-03-06T09:40:30.252Z,51.71
2023-03-06T09:42:59.771Z,50.65
2023-03-06T09:45:32.616Z,51.65
2023-03-06T09:48:13.690Z,50.66
2023-03-06T09:50:46.701Z,50.09
2023-03-06T09:53:31.821Z,49.95
2023-03-06T09:56:06.984Z,50.55
2023-03-06T09:58:50.325Z,50.21
2023-03-06T10:01:25.335Z,50.24
2023-03-06T10:04:09.253Z,50.07
2023-03-06T10:06:55.424Z,50.97
2023-03-06T10:09:43.364Z,50.64
2023-03-06T10:12:26.027Z,50.67
2023-03-06T10:14:58.767Z,50.18
2023-03-06T10:17:35.484Z,49.59
2023-03-06T10:20:26.761Z,48.88
2023-03-06T10:23:31.164Z,49.43
2023-03-06T10:26:34.374Z,48.16
2023-03-06T10:29:29.741Z,48.76
2023-03-06T10:32:18.104Z,48.68
2023-03-06T10:34:48.260Z,48.60
2023-03-06T10:37:40.301Z,47.76
2023-03-06T10:40:23.053Z,46.44
2023-03-06T10:43:09.338Z,47.13
2023-03-06T10:45:49.540Z,47.45
2023-03-06T10:48:26.862Z,47.65
2023-03-06T10:51:23.350Z,47.86
2023-03-06T10:54:02.013Z,48.51
2023-03-06T10:56:58.067Z,47.51
2023-03-06T10:59:35.384Z,48.75
2023-03-06T11:02:27.509Z,48.50
2023-03-06T11:05:00.299Z,48.45
2023-03-06T11:07:37.861Z,48.31
2023-03-06T11:10:32.474Z,48.79
2023-03-06T11:13:06.446Z,48.91
2023-03-06T11:15:42.773Z,48.42
2023-03-06T11:18:09.441Z,49.04
2023-03-06T11:20:52.549Z,48.66
2023-03-06T11:23:55.480Z,48.73
2023-03-06T11:26:34.496Z,49.39
2023-03-06T11:29:38.582Z,49.46
2023-03-06T11:32:36.020Z,49.78
2023-03-06T11:35:41.310Z,49.47
2023-03-06T11:38:22.617Z,49.07
2023-03-06T11:40:59.952Z,49.79
2023-03-06T11:43:57.183Z,49.77
2023-03-06T11:46:52.395Z,48.92
2023-03-06T11:49:59.278Z,49.70
2023-03-06T11:52:52.320Z,49.82
2023-03-06T11:55:28.563Z,49.76
2023-03-06T11:58:14.587Z,49.81
2023-03-06T12:01:06.226Z,49.98
2023-03-06T12:04:07.175Z,48.87
2023-03-06T12:06:49.337Z,49.71
2023-03-06T12:09:44.004Z,50.06
2023-03-06T12:12:35.048Z,50.12
2023-03-06T12:15:26.999Z,49.90
2023-03-06T12:18:29.075Z,50.11
2023-03-06T12:21:13.994Z,49.64
2023-03-06T12:24:00.920Z,49.61
2023-03-06T12:26:39.409Z,49.63
2023-03-06T12:29:44.085Z,50.20
2023-03-06T12:33:12.430Z,49.77
2023-03-06T12:35:54.885Z,49.78
2023-03-06T12:38:46.688Z,49.85
2023-03-06T12:41:36.970Z,49.59
2023-03-06T12:44:50.392Z,49.38
2023-03-06T12:47:35.014Z,49.44
2023-03-06T12:50:22.680Z,49.13
2023-03-06T12:52:55.169Z,49.42
2023-03-06T12:55:26.041Z,49.75
2023-03-06T12:58:37.089Z,49.42
2023-03-06T13:01:34.859Z,49.49
2023-03-06T13:04:38.833Z,49.08
2023-03-06T13:07:34.950Z,48.17
2023-03-06T13:10:16.450Z,48.18
2023-03-06T13:13:00.949Z,49.17
2023-03-06T13:16:03.841Z,47.59
2023-03-06T13:18:39.210Z,48.67
2023-03-06T13:21:06.036Z,48.07
2023-03-06T13:23:37.641Z,48.77
2023-03-06T13:26:25.699Z,48.07
2023-03-06T13:28:59.215Z,47.61
2023-03-06T13:31:28.291Z,48.00
2023-03-06T13:34:08.690Z,46.34
2023-03-06T13:36:46.368Z,46.98
2023-03-06T13:42:04.094Z,46.74
2023-03-06T13:44:44.583Z,46.77
2023-03-06T13:48:43.227Z,46.54
2023-03-06T13:51:36.065Z,46.76
2023-03-06T13:54:35.168Z,46.46
2023-03-06T13:57:43.729Z,45.64
2023-03-06T14:00:58.834Z,45.95
2023-03-06T14:03:40.138Z,46.57
2023-03-06T14:06:57.917Z,46.81
2023-03-06T14:09:46.324Z,47.40
2023-03-06T14:12:27.736Z,47.08
2023-03-06T14:15:13.186Z,46.77
2023-03-06T14:18:07.457Z,47.19
2023-03-06T14:20:54.006Z,47.37
2023-03-06T14:23:32.375Z,45.94
2023-03-06T14:26:25.186Z,46.20
2023-03-06T14:29:08.451Z,45.86
2023-03-06T14:31:45.018Z,46.81
2023-03-06T14:34:30.173Z,46.38
2023-03-06T14:37:12.428Z,46.20
2023-03-06T14:42:48.024Z,46.40
2023-03-06T14:45:18.930Z,46.42
2023-03-06T14:47:59.296Z,46.43
2023-03-06T14:50:39.401Z,46.92
2023-03-06T14:53:20.056Z,47.10
2023-03-06T14:56:06.257Z,46.59
2023-03-06T14:58:41.023Z,46.70
2023-03-06T15:01:10.987Z,47.46
2023-03-06T15:03:52.380Z,47.51
2023-03-06T15:06:38.715Z,47.47
2023-03-06T15:09:35.107Z,47.53
2023-03-06T15:12:09.675Z,47.04
2023-03-06T15:14:44.189Z,47.39
2023-03-06T15:17:24.227Z,47.54
2023-03-06T15:19:55.126Z,47.57
2023-03-06T15:22:29.245Z,47.22
2023-03-06T15:25:35.214Z,46.50
2023-03-06T15:28:29.111Z,46.77
2023-03-06T15:31:31.135Z,46.22
2023-03-06T15:34:08.078Z,46.78
2023-03-06T15:36:50.178Z,46.33
2023-03-06T15:42:30.920Z,46.93
2023-03-06T15:45:16.880Z,46.86
2023-03-06T15:47:53.860Z,47.23
2023-03-06T15:50:26.877Z,47.32
2023-03-06T15:52:56.951Z,48.04
2023-03-06T15:55:32.365Z,47.39
2023-03-06T15:58:07.456Z,47.68
2023-03-06T16:01:02.899Z,48.06
2023-03-06T16:03:31.866Z,47.50
2023-03-06T16:06:02.333Z,47.61
2023-03-06T16:08:34.009Z,47.84
2023-03-06T16:11:00.712Z,47.08
2023-03-06T16:13:29.052Z,46.87
2023-03-06T16:15:56.347Z,46.50
2023-03-06T16:18:25.948Z,46.59
2023-03-06T16:20:59.708Z,46.86
2023-03-06T16:23:26.512Z,46.43
2023-03-06T16:25:56.549Z,46.67
2023-03-06T16:28:34.585Z,47.42
2023-03-06T16:31:01.553Z,47.63
2023-03-06T16:33:30.068Z,48.12
2023-03-06T16:35:58.736Z,47.48
2023-03-06T16:38:25.597Z,47.65
2023-03-06T16:40:55.227Z,47.64
2023-03-06T16:43:22.015Z,48.02
2023-03-06T16:45:55.285Z,47.57
2023-03-06T16:48:22.457Z,47.14
2023-03-06T16:51:14.970Z,47.39
2023-03-06T16:53:58.025Z,48.06
2023-03-06T16:56:37.670Z,48.35
2023-03-06T16:59:08.231Z,47.90
2023-03-06T17:01:35.419Z,48.27
2023-03-06T17:04:02.216Z,48.13
2023-03-06T17:06:29.230Z,48.42
2023-03-06T17:08:58.351Z,49.03
2023-03-06T17:11:27.108Z,49.50
2023-03-06T17:13:55.483Z,48.86
2023-03-06T17:16:23.913Z,48.59
2023-03-06T17:19:03.694Z,48.08
2023-03-06T17:21:46.130Z,48.55
2023-03-06T17:24:13.327Z,49.19
2023-03-06T17:26:46.618Z,49.10
2023-03-06T17:29:19.267Z,49.14
2023-03-06T17:32:03.670Z,49.48
2023-03-06T17:34:30.449Z,48.30
2023-03-06T17:37:00.428Z,49.02
2023-03-06T17:39:44.218Z,49.75
2023-03-06T17:42:14.365Z,49.17
2023-03-06T17:44:41.676Z,49.08
2023-03-06T17:47:22.181Z,49.80
2023-03-06T17:49:52.273Z,50.08
2023-03-06T17:52:24.378Z,48.67
2023-03-06T17:54:51.351Z,49.37
2023-03-06T17:57:26.003Z,49.38
2023-03-06T17:59:57.379Z,49.31
2023-03-06T18:02:27.646Z,50.21
2023-03-06T18:04:59.378Z,50.52
2023-03-06T18:07:28.974Z,50.14
2023-03-06T18:10:04.220Z,50.09
2023-03-06T18:12:39.868Z,50.74
2023-03-06T18:15:07.285Z,50.35
2023-03-06T18:17:44.490Z,51.00
2023-03-06T18:20:19.815Z,50.61
2023-03-06T18:22:57.516Z,51.21
2023-03-06T18:25:38.817Z,51.27
2023-03-06T18:28:19.584Z,49.47
2023-03-06T18:30:48.701Z,51.43
2023-03-06T18:33:20.951Z,50.27
2023-03-06T18:35:57.114Z,51.19
2023-03-06T18:38:33.181Z,50.87
2023-03-06T18:41:05.206Z,51.28
2023-03-06T18:43:43.793Z,51.31
2023-03-06T18:46:14.556Z,50.49
2023-03-06T18:48:47.693Z,51.35
2023-03-06T18:51:21.105Z,51.71
2023-03-06T18:53:48.578Z,51.51
2023-03-06T18:56:21.446Z,51.15
2023-03-06T18:58:50.477Z,51.67
2023-03-06T19:01:21.340Z,51.43
2023-03-06T19:03:48.651Z,50.74
2023-03-06T19:06:28.021Z,52.08
2023-03-06T19:09:11.781Z,51.36
2023-03-06T19:11:38.656Z,51.07
2023-03-06T19:14:25.663Z,51.44
2023-03-06T19:16:57.120Z,51.93
2023-03-06T19:19:30.230Z,52.20
2023-03-06T19:22:01.058Z,52.49
2023-03-06T19:24:37.037Z,51.74
2023-03-06T19:27:11.549Z,51.02
2023-03-06T19:29:54.966Z,51.38
2023-03-06T19:32:37.143Z,51.87
2023-03-06T19:35:19.876Z,51.90
2023-03-06T19:38:08.171Z,51.86
2023-03-06T19:40:47.887Z,51.82
2023-03-06T19:43:41.942Z,52.19
2023-03-06T19:46:19.401Z,52.42
2023-03-06T19:48:56.211Z,52.56
2023-03-06T19:51:58.111Z,53.15
2023-03-06T19:54:54.801Z,52.92
2023-03-06T19:57:31.385Z,52.45
2023-03-06T20:00:11.118Z,52.85
2023-03-06T20:02:39.818Z,52.57
2023-03-06T20:05:12.612Z,52.32
2023-03-06T20:07:39.414Z,51.94
2023-03-06T20:10:07.101Z,52.63
2023-03-06T20:12:37.726Z,52.02
2023-03-06T20:15:09.492Z,51.82
2023-03-06T20:17:49.822Z,50.82
2023-03-06T20:20:16.882Z,51.91
2023-03-06T20:22:52.864Z,51.22
2023-03-06T20:25:37.057Z,51.39
2023-03-06T20:28:11.241Z,51.38
2023-03-06T20:30:49.633Z,52.36
2023-03-06T20:33:22.531Z,50.95
2023-03-06T20:36:01.794Z,52.44
2023-03-06T20:38:39.752Z,51.66
2023-03-06T20:41:08.534Z,51.21
2023-03-06T20:43:47.417Z,49.52
2023-03-06T20:46:34.429Z,51.32
2023-03-06T20:49:49.276Z,51.78
2023-03-06T20:52:29.075Z,49.19
2023-03-06T20:55:03.242Z,51.37
2023-03-06T20:57:39.302Z,50.52
2023-03-06T21:00:20.143Z,51.26
2023-03-06T21:02:59.718Z,50.17
2023-03-06T21:05:40.683Z,49.79
2023-03-06T21:08:20.640Z,51.54
2023-03-06T21:10:56.000Z,49.61
2023-03-06T21:13:58.001Z,52.06
2023-03-06T21:16:32.395Z,50.21
2023-03-06T21:19:27.316Z,48.55
2023-03-06T21:22:01.530Z,51.00
2023-03-06T21:24:32.225Z,49.35
2023-03-06T21:26:59.255Z,50.99
2023-03-06T21:35:05.668Z,49.10
2023-03-06T21:37:43.628Z,50.74
2023-03-06T21:40:12.273Z,50.05
2023-03-06T21:42:50.656Z,49.83
2023-03-06T21:48:16.962Z,51.25
2023-03-06T21:50:45.295Z,47.93
2023-03-06T21:56:33.120Z,50.97
2023-03-06T21:59:08.202Z,47.27
2023-03-06T22:01:48.818Z,49.05
2023-03-06T22:04:33.571Z,48.47
2023-03-06T22:07:10.311Z,50.04
2023-03-06T22:09:43.182Z,48.23
2023-03-06T22:12:15.460Z,48.51
2023-03-06T22:14:50.721Z,51.78
2023-03-06T22:17:17.798Z,49.49
2023-03-06T22:22:56.134Z,49.20
2023-03-06T22:25:26.698Z,50.25
2023-03-06T22:27:54.642Z,50.28
2023-03-06T22:30:24.321Z,48.16
2023-03-06T22:32:56.370Z,50.14
2023-03-06T22:35:31.431Z,50.06
2023-03-06T22:38:23.471Z,50.57
2023-03-06T22:41:03.707Z,51.84
2023-03-06T22:43:53.533Z,47.90
2023-03-06T22:46:46.546Z,50.58
2023-03-06T22:49:26.123Z,51.36
2023-03-06T22:51:59.031Z,51.66
2023-03-06T22:54:46.578Z,49.69
2023-03-06T22:57:32.526Z,48.30
2023-03-06T22:59:59.882Z,49.35
2023-03-06T23:03:02.153Z,48.59
2023-03-06T23:05:35.859Z,51.32
2023-03-06T23:08:04.608Z,52.38
2023-03-06T23:10:34.355Z,51.51
2023-03-06T23:13:10.978Z,50.32
2023-03-06T23:15:47.848Z,50.30
2023-03-06T23:18:29.514Z,49.43
2023-03-06T23:21:13.930Z,49.58
2023-03-06T23:23:54.290Z,49.83
2023-03-06T23:26:42.040Z,49.58
2023-03-06T23:29:10.760Z,50.89
2023-03-06T23:32:05.603Z,48.57
2023-03-06T23:34:32.519Z,49.19
2023-03-06T23:37:10.143Z,48.71
2023-03-06T23:39:54.106Z,50.37
2023-03-06T23:42:55.581Z,47.58
2023-03-06T23:45:38.804Z,47.72
2023-03-06T23:48:12.321Z,48.74
2023-03-06T23:50:47.918Z,50.63
2023-03-06T23:53:14.863Z,49.83
2023-03-06T23:55:57.842Z,50.26
2023-03-06T23:58:45.245Z,53.23
